createdAt,value
2023-04-12T00:01:15.449Z,8.27
2023-04-12T00:04:57.608Z,8.85
2023-04-12T00:08:39.777Z,10.93
2023-04-12T00:12:21.769Z,7.10
2023-04-12T00:16:04.135Z,7.10
2023-04-12T00:19:47.736Z,8.43
2023-04-12T00:23:29.641Z,9.57
2023-04-12T00:27:11.813Z,6.63
2023-04-12T00:30:53.808Z,9.63
2023-04-12T00:34:35.818Z,9.02
2023-04-12T00:38:17.845Z,6.40
2023-04-12T00:42:04.266Z,8.18
2023-04-12T00:45:47.660Z,5.50
2023-04-12T00:49:30.933Z,7.07
2023-04-12T00:53:14.696Z,5.47
2023-04-12T00:56:57.608Z,4.18
2023-04-12T01:00:40.274Z,4.28
2023-04-12T01:04:22.764Z,6.03
2023-04-12T01:08:30.770Z,3.45
2023-04-12T01:12:37.291Z,3.28
2023-04-12T01:16:34.207Z,4.05
2023-04-12T01:20:19.685Z,3.53
2023-04-12T01:24:18.734Z,2.97
2023-04-12T01:28:05.641Z,5.30
2023-04-12T01:31:59.189Z,2.22
2023-04-12T01:35:42.658Z,3.05
2023-04-12T01:39:25.357Z,5.18
2023-04-12T01:43:09.310Z,3.63
2023-04-12T01:46:51.917Z,2.08
2023-04-12T01:50:41.577Z,1.60
2023-04-12T01:54:28.012Z,2.50
2023-04-12T01:58:11.938Z,4.22
2023-04-12T02:01:54.125Z,3.33
2023-04-12T02:05:36.766Z,4.72
2023-04-12T02:09:18.885Z,1.88
2023-04-12T02:13:01.982Z,4.07
2023-04-12T02:16:44.916Z,4.75
2023-04-12T02:20:27.379Z,5.00
2023-04-12T02:24:10.495Z,5.43
2023-04-12T02:27:52.456Z,3.33
2023-04-12T02:31:35.682Z,4.43
2023-04-12T02:35:17.822Z,5.40
2023-04-12T02:38:59.781Z,6.38
2023-04-12T02:42:43.034Z,4.93
2023-04-12T02:46:27.523Z,8.45
2023-04-12T02:50:09.747Z,5.38
2023-04-12T02:53:51.744Z,8.60
2023-04-12T02:57:33.677Z,7.07
2023-04-12T03:01:17.089Z,7.07
2023-04-12T03:04:59.074Z,3.85
2023-04-12T03:08:41.017Z,6.65
2023-04-12T03:12:23.053Z,7.22
2023-04-12T03:16:23.807Z,9.30
2023-04-12T03:20:10.645Z,6.60
2023-04-12T03:27:34.784Z,7.60
2023-04-12T03:31:20.615Z,7.43
2023-04-12T03:35:03.310Z,4.07
2023-04-12T03:38:45.454Z,6.93
2023-04-12T03:42:33.457Z,8.93
2023-04-12T03:46:16.528Z,6.72
2023-04-12T03:50:11.548Z,10.85
2023-04-12T03:53:57.365Z,6.35
2023-04-12T03:57:39.715Z,7.25
2023-04-12T04:01:21.803Z,5.97
2023-04-12T04:05:04.978Z,5.00
2023-04-12T04:08:47.117Z,6.45
2023-04-12T04:12:29.089Z,7.15
2023-04-12T04:16:11.169Z,7.13
2023-04-12T04:19:53.304Z,8.80
2023-04-12T04:23:45.031Z,7.07
2023-04-12T04:27:30.689Z,8.18
2023-04-12T04:31:13.761Z,12.45
2023-04-12T04:35:00.074Z,8.20
2023-04-12T04:38:42.149Z,7.68
2023-04-12T04:42:24.572Z,4.30
2023-04-12T04:46:06.719Z,5.53
2023-04-12T04:49:49.863Z,8.43
2023-04-12T04:53:31.897Z,5.60
2023-04-12T04:57:14.872Z,5.68
2023-04-12T05:00:57.658Z,6.70
2023-04-12T05:04:39.798Z,6.20
2023-04-12T05:08:22.164Z,3.75
2023-04-12T05:12:04.262Z,7.50
2023-04-12T05:15:46.206Z,4.03
2023-04-12T05:19:29.073Z,6.55
2023-04-12T05:23:11.009Z,6.18
2023-04-12T05:26:53.007Z,8.57
2023-04-12T05:30:34.968Z,6.28
2023-04-12T05:34:17.041Z,4.22
2023-04-12T05:37:58.984Z,5.03
2023-04-12T05:41:41.148Z,4.10
2023-04-12T05:45:23.428Z,5.10
2023-04-12T05:49:06.114Z,5.65
2023-04-12T05:52:50.725Z,5.95
2023-04-12T05:56:33.256Z,4.53
2023-04-12T06:00:18.816Z,3.25
2023-04-12T06:04:06.134Z,4.28
2023-04-12T06:07:49.139Z,5.07
2023-04-12T06:11:33.900Z,4.30
2023-04-12T06:15:16.029Z,3.95
2023-04-12T06:18:58.238Z,3.38
2023-04-12T06:22:40.513Z,3.42
2023-04-12T06:26:22.514Z,3.78
2023-04-12T06:30:04.719Z,2.20
2023-04-12T06:33:47.414Z,1.65
2023-04-12T06:37:29.315Z,2.47
2023-04-12T06:41:11.803Z,3.13
2023-04-12T06:44:53.732Z,4.47
2023-04-12T06:48:35.777Z,1.80
2023-04-12T06:52:17.941Z,4.47
2023-04-12T06:56:04.436Z,3.75
2023-04-12T06:59:49.383Z,2.65
2023-04-12T07:03:33.402Z,4.93
2023-04-12T07:07:15.569Z,3.63
2023-04-12T07:10:57.618Z,4.68
2023-04-12T07:14:39.738Z,6.22
2023-04-12T07:18:21.987Z,3.20
2023-04-12T07:22:03.983Z,2.83
2023-04-12T07:25:46.087Z,4.30
2023-04-12T07:29:28.045Z,3.25
2023-04-12T07:33:19.259Z,4.45
2023-04-12T07:37:02.096Z,2.72
2023-04-12T07:40:44.109Z,3.15
2023-04-12T07:44:26.222Z,5.70
2023-04-12T07:48:08.523Z,3.50
2023-04-12T07:51:50.819Z,2.38
2023-04-12T07:55:32.763Z,2.80
2023-04-12T07:59:14.686Z,2.55
2023-04-12T08:02:57.150Z,2.00
2023-04-12T08:06:39.216Z,2.00
2023-04-12T08:10:21.175Z,4.55
2023-04-12T08:14:03.170Z,3.08
2023-04-12T08:17:46.756Z,2.00
2023-04-12T08:21:30.185Z,3.40
2023-04-12T08:25:12.550Z,2.90
2023-04-12T08:28:54.556Z,3.65
2023-04-12T08:32:37.704Z,3.60
2023-04-12T08:36:19.926Z,2.55
2023-04-12T08:40:07.417Z,2.10
2023-04-12T08:43:49.745Z,3.38
2023-04-12T08:47:37.649Z,4.03
2023-04-12T08:51:21.523Z,5.20
2023-04-12T08:55:07.593Z,4.00
2023-04-12T08:58:51.281Z,5.90
2023-04-12T09:02:39.319Z,3.75
2023-04-12T09:06:21.437Z,3.47
2023-04-12T09:10:04.828Z,2.58
2023-04-12T09:13:46.760Z,3.75
2023-04-12T09:17:29.071Z,7.32
2023-04-12T09:21:12.184Z,3.78
2023-04-12T09:24:56.489Z,4.40
2023-04-12T09:28:44.994Z,5.10
2023-04-12T09:32:30.291Z,2.85
2023-04-12T09:36:17.012Z,3.42
2023-04-12T09:43:48.078Z,3.08
2023-04-12T09:47:40.503Z,6.43
2023-04-12T09:51:26.962Z,9.95
2023-04-12T09:55:10.755Z,5.20
2023-04-12T09:58:54.192Z,7.32
2023-04-12T10:02:36.711Z,6.15
2023-04-12T10:06:19.136Z,5.95
2023-04-12T10:10:02.553Z,7.75
2023-04-12T10:13:45.148Z,5.78
2023-04-12T10:17:27.341Z,6.15
2023-04-12T10:21:09.593Z,5.97
2023-04-12T10:24:51.684Z,4.65
2023-04-12T10:28:33.697Z,4.57
2023-04-12T10:32:25.771Z,5.63
2023-04-12T10:36:11.333Z,4.75
2023-04-12T10:39:54.503Z,7.65
2023-04-12T10:43:36.467Z,4.72
2023-04-12T10:47:49.533Z,7.07
2023-04-12T10:51:33.356Z,4.85
2023-04-12T10:55:29.991Z,9.15
2023-04-12T10:59:15.483Z,8.23
2023-04-12T11:03:09.875Z,9.38
2023-04-12T11:06:59.188Z,3.00
2023-04-12T11:10:41.904Z,8.05
2023-04-12T11:14:36.714Z,4.13
2023-04-12T11:18:19.012Z,5.55
2023-04-12T11:22:02.494Z,9.77
2023-04-12T11:25:49.619Z,6.25
2023-04-12T11:29:34.529Z,9.52
2023-04-12T11:33:35.142Z,5.95
2023-04-12T11:37:20.569Z,4.53
2023-04-12T11:41:02.832Z,2.55
2023-04-12T11:48:31.280Z,2.97
2023-04-12T11:52:14.507Z,1.95
2023-04-12T11:55:59.661Z,2.85
2023-04-12T11:59:45.348Z,1.75
2023-04-12T12:03:27.965Z,0.50
2023-04-12T12:07:12.418Z,0.60
2023-04-12T12:11:07.262Z,2.67
2023-04-12T12:14:50.560Z,1.17
2023-04-12T12:18:32.732Z,0.20
2023-04-12T12:22:19.984Z,1.88
2023-04-12T12:26:18.317Z,2.58
2023-04-12T12:30:02.532Z,1.60
2023-04-12T12:34:00.335Z,3.15
2023-04-12T12:37:55.814Z,1.63
2023-04-12T12:41:39.111Z,1.20
2023-04-12T12:45:24.063Z,0.93
2023-04-12T12:49:06.214Z,0.80
2023-04-12T12:52:48.417Z,1.10
2023-04-12T12:56:30.541Z,1.15
2023-04-12T13:00:15.231Z,1.75
2023-04-12T13:03:59.163Z,0.75
2023-04-12T13:07:41.397Z,0.82
2023-04-12T13:11:23.388Z,1.35
2023-04-12T13:15:20.165Z,1.55
2023-04-12T13:19:03.885Z,2.72
2023-04-12T13:22:45.862Z,3.60
2023-04-12T13:26:27.847Z,2.90
2023-04-12T13:30:10.094Z,3.97
2023-04-12T13:33:52.282Z,2.22
2023-04-12T13:37:34.740Z,1.92
2023-04-12T13:41:16.785Z,3.80
2023-04-12T13:44:58.828Z,1.30
2023-04-12T13:48:40.779Z,1.38
2023-04-12T13:52:22.765Z,3.50
2023-04-12T13:56:05.003Z,2.92
2023-04-12T13:59:46.974Z,4.40
2023-04-12T14:03:28.976Z,3.72
2023-04-12T14:07:10.983Z,4.35
2023-04-12T14:10:54.507Z,3.65
2023-04-12T14:14:36.420Z,5.15
2023-04-12T14:18:19.088Z,5.38
2023-04-12T14:22:02.550Z,7.43
2023-04-12T14:25:44.733Z,6.88
2023-04-12T14:29:27.215Z,3.75
2023-04-12T14:33:09.288Z,2.53
2023-04-12T14:36:51.544Z,6.32
2023-04-12T14:40:33.489Z,2.30
2023-04-12T14:44:16.997Z,3.55
2023-04-12T14:48:00.141Z,5.50
2023-04-12T14:51:42.109Z,7.30
2023-04-12T14:55:24.054Z,7.13
2023-04-12T14:59:06.121Z,2.90
2023-04-12T15:02:49.117Z,4.13
2023-04-12T15:06:33.924Z,2.67
2023-04-12T15:10:15.869Z,3.85
2023-04-12T15:13:58.023Z,2.03
2023-04-12T15:17:40.821Z,4.80
2023-04-12T15:21:23.082Z,6.03
2023-04-12T15:25:05.838Z,3.15
2023-04-12T15:28:47.810Z,4.68
2023-04-12T15:32:30.148Z,4.18
2023-04-12T15:36:12.108Z,5.28
2023-04-12T15:39:55.061Z,4.35
2023-04-12T15:43:37.176Z,4.78
2023-04-12T15:47:19.182Z,7.05
2023-04-12T15:51:01.150Z,5.07
2023-04-12T15:54:43.918Z,5.13
2023-04-12T15:58:30.126Z,5.18
2023-04-12T16:02:12.159Z,5.60
2023-04-12T16:05:54.421Z,4.18
2023-04-12T16:09:38.735Z,3.50
2023-04-12T16:13:21.488Z,4.15
2023-04-12T16:17:03.499Z,2.22
2023-04-12T16:20:45.500Z,5.05
2023-04-12T16:24:28.731Z,2.33
2023-04-12T16:28:12.601Z,5.65
2023-04-12T16:31:54.812Z,5.32
2023-04-12T16:35:36.949Z,5.85
2023-04-12T16:39:18.954Z,3.55
2023-04-12T16:43:00.933Z,3.05
2023-04-12T16:46:44.293Z,4.60
2023-04-12T16:50:26.571Z,4.40
2023-04-12T16:54:08.592Z,3.33
2023-04-12T16:57:53.258Z,3.55
2023-04-12T17:01:35.250Z,3.25
2023-04-12T17:05:18.332Z,7.75
2023-04-12T17:09:00.927Z,3.85
2023-04-12T17:12:44.605Z,2.60
2023-04-12T17:16:26.659Z,1.55
2023-04-12T17:20:11.905Z,1.95
2023-04-12T17:23:56.047Z,1.23
2023-04-12T17:27:38.657Z,2.13
2023-04-12T17:31:22.484Z,1.60
2023-04-12T17:35:06.999Z,3.70
2023-04-12T17:38:48.954Z,3.42
2023-04-12T17:42:30.956Z,4.95
2023-04-12T17:46:12.963Z,5.28
2023-04-12T17:49:54.921Z,6.20
2023-04-12T17:53:37.069Z,6.68
2023-04-12T17:57:19.214Z,7.90
2023-04-12T18:01:01.282Z,9.35
2023-04-12T18:04:43.653Z,11.15
2023-04-12T18:08:25.815Z,12.50
2023-04-12T18:12:08.465Z,8.98
2023-04-12T18:15:50.955Z,10.77
2023-04-12T18:19:32.975Z,7.78
2023-04-12T18:23:15.324Z,8.02
2023-04-12T18:26:59.380Z,9.73
2023-04-12T18:30:41.522Z,8.70
2023-04-12T18:34:23.554Z,12.07
2023-04-12T18:38:05.582Z,8.70
2023-04-12T18:41:47.556Z,9.77
2023-04-12T18:45:29.529Z,10.07
2023-04-12T18:49:11.961Z,8.13
2023-04-12T18:52:53.959Z,9.70
2023-04-12T18:56:36.235Z,5.68
2023-04-12T19:00:19.759Z,2.58
2023-04-12T19:04:04.616Z,5.45
2023-04-12T19:07:46.584Z,5.35
2023-04-12T19:11:28.587Z,4.15
2023-04-12T19:15:11.203Z,6.22
2023-04-12T19:18:53.258Z,4.35
2023-04-12T19:22:35.610Z,7.07
2023-04-12T19:26:17.550Z,4.15
2023-04-12T19:29:59.544Z,4.40
2023-04-12T19:33:42.358Z,4.95
2023-04-12T19:37:24.351Z,8.55
2023-04-12T19:41:06.377Z,7.50
2023-04-12T19:44:48.406Z,6.40
2023-04-12T19:48:31.150Z,4.55
2023-04-12T19:52:15.376Z,5.93
2023-04-12T19:55:58.170Z,5.38
2023-04-12T19:59:40.948Z,6.03
2023-04-12T20:03:23.529Z,7.60
2023-04-12T20:07:05.819Z,4.07
2023-04-12T20:10:48.289Z,5.30
2023-04-12T20:14:30.500Z,5.78
2023-04-12T20:18:15.637Z,6.90
2023-04-12T20:22:02.129Z,4.38
2023-04-12T20:25:48.936Z,7.47
2023-04-12T20:33:14.947Z,7.53
2023-04-12T20:36:57.862Z,5.50
2023-04-12T20:40:39.892Z,4.65
2023-04-12T20:44:22.197Z,7.70
2023-04-12T20:48:05.256Z,7.25
2023-04-12T20:51:47.750Z,6.90
2023-04-12T20:55:32.737Z,6.38
2023-04-12T20:59:21.808Z,4.95
2023-04-12T21:07:03.381Z,6.18
2023-04-12T21:10:48.292Z,5.35
2023-04-12T21:14:30.330Z,5.40
2023-04-12T21:18:12.208Z,6.22
2023-04-12T21:21:54.174Z,7.68
2023-04-12T21:25:36.119Z,5.55
2023-04-12T21:29:19.698Z,7.68
2023-04-12T21:33:02.301Z,8.75
2023-04-12T21:36:44.221Z,8.63
2023-04-12T21:40:26.453Z,7.32
2023-04-12T21:44:08.452Z,8.52
2023-04-12T21:47:51.192Z,8.65
2023-04-12T21:51:33.231Z,9.30
2023-04-12T21:55:15.310Z,5.97
2023-04-12T21:58:59.730Z,5.00
2023-04-12T22:02:42.165Z,6.88
2023-04-12T22:06:24.213Z,3.20
2023-04-12T22:10:09.314Z,4.15
2023-04-12T22:13:51.231Z,3.40
2023-04-12T22:17:33.525Z,5.50
2023-04-12T22:21:16.610Z,7.13
2023-04-12T22:24:58.522Z,6.10
2023-04-12T22:28:41.408Z,6.03
2023-04-12T22:32:23.669Z,5.70
2023-04-12T22:36:06.242Z,5.22
2023-04-12T22:39:51.486Z,9.18
2023-04-12T22:43:43.340Z,7.13
2023-04-12T22:47:26.683Z,10.32
2023-04-12T22:51:08.645Z,9.30
2023-04-12T22:54:50.625Z,6.18
2023-04-12T22:58:32.591Z,9.93
2023-04-12T23:02:14.584Z,7.22
2023-04-12T23:05:56.637Z,7.80
2023-04-12T23:09:38.523Z,8.35
2023-04-12T23:13:20.488Z,7.75
2023-04-12T23:17:02.401Z,7.30
2023-04-12T23:20:44.895Z,5.22
2023-04-12T23:24:28.564Z,4.68
2023-04-12T23:28:15.528Z,7.05
2023-04-12T23:31:58.245Z,9.52
2023-04-12T23:35:41.374Z,8.02
2023-04-12T23:39:23.340Z,11.05
2023-04-12T23:43:05.235Z,9.77
2023-04-12T23:46:47.167Z,6.75
2023-04-12T23:50:29.439Z,9.23
2023-04-12T23:54:11.310Z,8.75
2023-04-12T23:57:53.219Z,4.43
